Terminal Aerodrome Forecast
Issued by NWS

Home | Current Version | Previous Version | Text Only | Print | Product List | Glossary On
Versions: 1 2 3 4 5 6 7 8 9 10 11 12 13 14 15 16 17
286
FTUS44 KBMX 300520
TAFEET
TAF
KEET 300520Z 3006/0106 00000KT P6SM OVC110
     FM300900 14002KT 4SM BR OVC050
      TEMPO 3009/3013 2SM BR
     FM301400 15005KT P6SM BKN035 OVC250
     FM302000 18009KT P6SM VCSH BKN080
     FM010000 VRB02KT P6SM VCSH SCT090 BKN120=

USA.gov is the U.S. government's official web portal to all federal, state and local government web resources and services.